Time;durP1;ratioP1;P1;durP2;ratioP2;P2;SDS_P1;SDS_P2;PMS_P1;PMS_P2;Temp;Humidity;BMP_temperature;BMP_pressure;BME280_temperature;BME280_humidity;BME280_pressure;Samples;Min_cycle;Max_cycle;Signal;HPM_P1;HPM_P2
2021/08/12 00:00:46;;;;;;;4.90;2.83;;;27.30;94.50;;;;;;5103797;28;20032;-55
2021/08/12 00:03:12;;;;;;;5.68;2.42;;;27.40;94.50;;;;;;5102588;28;20059;-50
2021/08/12 00:05:39;;;;;;;3.22;2.20;;;27.50;94.30;;;;;;5103717;28;20024;-55
2021/08/12 00:08:06;;;;;;;4.38;1.60;;;27.40;94.10;;;;;;5104172;28;20020;-55
2021/08/12 00:10:33;;;;;;;4.68;2.25;;;27.40;94.00;;;;;;5103648;28;20024;-52
2021/08/12 00:13:00;;;;;;;4.78;3.00;;;27.40;94.00;;;;;;5104097;28;20091;-51
2021/08/12 00:15:26;;;;;;;4.25;2.65;;;27.50;94.00;;;;;;5103758;28;20057;-50
2021/08/12 00:17:53;;;;;;;4.13;2.42;;;27.40;94.00;;;;;;5103978;28;20031;-51
2021/08/12 00:20:20;;;;;;;3.25;1.70;;;27.40;94.10;;;;;;5103508;28;20032;-50
2021/08/12 00:22:46;;;;;;;4.38;2.00;;;27.30;94.10;;;;;;5103804;28;20024;-56
2021/08/12 00:25:13;;;;;;;5.18;2.10;;;27.30;94.00;;;;;;5103129;28;20140;-50
2021/08/12 00:27:40;;;;;;;4.07;2.05;;;27.30;94.10;;;;;;5103502;28;20077;-50
2021/08/12 00:30:08;;;;;;;5.40;1.80;;;27.30;94.10;;;;;;5105145;28;20023;-56
2021/08/12 00:32:34;;;;;;;5.30;1.67;;;27.30;94.10;;;;;;5107354;28;20020;-57
2021/08/12 00:35:01;;;;;;;3.25;1.75;;;27.20;94.00;;;;;;5107035;28;20316;-58
2021/08/12 00:37:31;;;;;;;2.83;1.50;;;27.20;94.00;;;;;;5107364;28;20016;-55
2021/08/12 00:39:58;;;;;;;5.30;2.00;;;27.30;94.00;;;;;;5107074;28;20308;-48
2021/08/12 00:42:24;;;;;;;6.03;2.30;;;27.20;94.10;;;;;;5107222;28;20038;-52
2021/08/12 00:44:51;;;;;;;8.02;2.97;;;27.20;94.10;;;;;;5107067;28;20328;-53
2021/08/12 00:47:18;;;;;;;5.80;3.10;;;27.20;94.20;;;;;;5107099;28;20020;-52
2021/08/12 00:49:45;;;;;;;6.10;3.50;;;27.20;94.30;;;;;;5106758;28;20091;-52
2021/08/12 00:52:12;;;;;;;5.95;2.58;;;27.30;94.40;;;;;;5107207;28;20016;-54
2021/08/12 00:54:42;;;;;;;5.13;2.50;;;27.30;94.40;;;;;;5106982;28;20342;-51
2021/08/12 00:57:10;;;;;;;5.22;2.65;;;27.30;94.40;;;;;;5106803;28;20473;-52
2021/08/12 00:59:38;;;;;;;3.88;2.30;;;27.30;94.40;;;;;;5105513;28;20103;-53
2021/08/12 01:02:08;;;;;;;6.13;2.60;;;27.20;94.40;;;;;;5106776;28;20016;-48
2021/08/12 01:04:48;;;;;;;3.67;2.08;;;27.20;94.50;;;;;;5105423;28;20036;-53
2021/08/12 01:07:32;;;;;;;6.20;2.70;;;27.20;94.50;;;;;;5106631;28;20024;-48
2021/08/12 01:10:08;;;;;;;23.42;3.63;;;27.20;94.60;;;;;;5106535;28;20113;-51
2021/08/12 01:12:48;;;;;;;26.63;5.05;;;27.20;94.80;;;;;;5106382;28;20023;-51
2021/08/12 01:15:27;;;;;;;27.65;3.45;;;27.20;94.80;;;;;;5106404;28;20129;-51
2021/08/12 01:18:30;;;;;;;14.60;3.33;;;27.20;94.90;;;;;;5106642;28;20323;-55
2021/08/12 01:20:59;;;;;;;;;;;27.20;94.90;;;;;;5106982;28;20074;-50
2021/08/12 01:23:27;;;;;;;11.48;4.47;;;27.20;94.90;;;;;;5105098;28;19908;-53
2021/08/12 01:25:55;;;;;;;12.00;3.72;;;27.20;94.90;;;;;;5104884;28;20036;-62
2021/08/12 01:28:29;;;;;;;7.25;2.60;;;27.20;95.30;;;;;;5106860;28;20017;-54
2021/08/12 01:30:58;;;;;;;6.68;2.30;;;27.10;95.50;;;;;;5106218;28;20022;-53
2021/08/12 01:33:33;;;;;;;14.70;2.30;;;27.10;95.50;;;;;;5106658;28;20016;-50
2021/08/12 01:36:02;;;;;;;6.22;2.20;;;27.00;95.60;;;;;;5105944;28;20091;-52
2021/08/12 01:38:33;;;;;;;5.50;2.83;;;26.90;95.70;;;;;;5101871;28;20209;-52
2021/08/12 01:41:00;;;;;;;6.80;3.08;;;26.90;95.90;;;;;;5102693;28;20059;-51
2021/08/12 01:43:29;;;;;;;4.68;2.70;;;26.90;96.00;;;;;;5106209;28;20024;-55
2021/08/12 01:45:58;;;;;;;10.55;2.72;;;26.90;95.80;;;;;;5105900;28;20028;-52
2021/08/12 01:48:26;;;;;;;6.60;2.65;;;26.90;95.60;;;;;;5106281;28;20020;-52
2021/08/12 01:50:55;;;;;;;11.10;2.53;;;26.80;95.60;;;;;;5105897;28;20031;-56
2021/08/12 01:53:23;;;;;;;8.85;3.05;;;26.80;95.70;;;;;;5106141;28;20197;-52
2021/08/12 01:55:51;;;;;;;7.57;2.88;;;26.80;95.80;;;;;;5104389;28;20100;-52
2021/08/12 01:58:21;;;;;;;7.50;3.15;;;26.80;95.90;;;;;;5104465;28;20095;-52
2021/08/12 02:00:51;;;;;;;7.70;3.33;;;26.80;96.10;;;;;;5105661;28;20094;-51
2021/08/12 02:03:19;;;;;;;10.48;2.90;;;26.80;96.20;;;;;;5106069;28;20356;-52
2021/08/12 02:05:57;;;;;;;7.20;3.17;;;26.80;96.20;;;;;;5104326;28;20357;-54
2021/08/12 02:08:24;;;;;;;9.30;3.33;;;26.80;96.20;;;;;;5105898;28;20024;-49
2021/08/12 02:10:52;;;;;;;9.65;3.13;;;26.80;96.20;;;;;;5105601;28;20023;-53
2021/08/12 02:13:19;;;;;;;4.28;2.35;;;26.80;96.10;;;;;;5105873;28;20038;-58
2021/08/12 02:15:47;;;;;;;6.93;2.72;;;26.70;96.00;;;;;;5104268;28;20024;-52
2021/08/12 02:18:14;;;;;;;4.80;2.47;;;26.70;96.00;;;;;;5105802;28;20113;-53
2021/08/12 02:20:41;;;;;;;5.50;2.22;;;26.70;96.20;;;;;;5105295;28;20019;-58
2021/08/12 02:23:24;;;;;;;10.80;4.40;;;26.70;96.30;;;;;;5105462;28;20028;-53
2021/08/12 02:26:17;;;;;;;6.30;4.10;;;26.70;96.20;;;;;;5103984;28;20111;-55
2021/08/12 02:28:45;;;;;;;9.40;3.67;;;26.70;96.30;;;;;;5103980;28;20036;-51
2021/08/12 02:31:15;;;;;;;5.63;3.05;;;26.70;96.40;;;;;;5104441;28;20020;-51
2021/08/12 02:33:45;;;;;;;5.80;2.72;;;26.60;96.30;;;;;;5103620;28;20043;-52
2021/08/12 02:36:12;;;;;;;8.30;2.88;;;26.60;96.30;;;;;;5105057;28;20020;-53
2021/08/12 02:38:43;;;;;;;8.70;3.30;;;26.60;96.30;;;;;;5105525;28;20130;-52
2021/08/12 02:41:13;;;;;;;8.40;3.83;;;26.60;96.30;;;;;;5104651;28;20016;-56
2021/08/12 02:43:42;;;;;;;7.60;3.60;;;26.60;96.30;;;;;;5104409;28;20027;-52
2021/08/12 02:46:09;;;;;;;8.30;3.20;;;26.60;96.40;;;;;;5103382;28;20031;-55
2021/08/12 02:48:40;;;;;;;5.00;2.60;;;26.60;96.40;;;;;;5098460;28;20293;-55
2021/08/12 02:51:14;;;;;;;8.32;2.33;;;26.60;96.40;;;;;;5066489;28;20240;-52
2021/08/12 02:53:41;;;;;;;7.53;2.35;;;26.60;96.40;;;;;;5083036;28;20042;-51
2021/08/12 02:56:12;;;;;;;7.15;2.00;;;26.50;96.40;;;;;;5083432;28;20236;-53
2021/08/12 02:58:44;;;;;;;7.13;2.80;;;26.60;96.50;;;;;;5084029;28;20025;-52
2021/08/12 03:01:24;;;;;;;6.72;2.03;;;26.60;96.40;;;;;;5086984;28;20018;-52
2021/08/12 03:03:52;;;;;;;9.10;2.42;;;26.60;96.30;;;;;;5092984;28;20037;-52
2021/08/12 03:06:22;;;;;;;5.03;2.63;;;26.60;96.20;;;;;;5083224;28;20024;-54
2021/08/12 03:08:50;;;;;;;6.40;3.00;;;26.70;96.20;;;;;;5084452;28;20023;-48
2021/08/12 03:11:19;;;;;;;8.25;4.20;;;26.70;96.20;;;;;;5083898;28;20015;-50
2021/08/12 03:13:47;;;;;;;8.52;5.30;;;26.70;96.20;;;;;;5083811;28;20091;-50
2021/08/12 03:16:13;;;;;;;12.38;5.22;;;26.70;96.20;;;;;;5084220;28;20017;-57
2021/08/12 03:18:40;;;;;;;5.78;4.03;;;26.70;96.20;;;;;;5084350;28;20025;-50
2021/08/12 03:21:11;;;;;;;9.45;4.78;;;26.70;96.10;;;;;;5083677;28;20024;-51
2021/08/12 03:23:39;;;;;;;7.13;5.07;;;26.70;96.20;;;;;;5084198;28;20069;-49
2021/08/12 03:26:06;;;;;;;8.57;6.05;;;26.70;96.20;;;;;;5083541;28;20036;-49
2021/08/12 03:28:33;;;;;;;10.43;5.93;;;26.70;96.10;;;;;;5083669;28;20114;-50
2021/08/12 03:31:03;;;;;;;7.22;4.63;;;26.80;96.20;;;;;;5083971;28;20367;-51
2021/08/12 03:33:31;;;;;;;9.02;3.95;;;26.80;96.20;;;;;;5084181;28;20084;-47
2021/08/12 03:35:58;;;;;;;8.20;3.90;;;26.80;96.20;;;;;;5083830;28;20244;-56
2021/08/12 03:38:24;;;;;;;10.65;3.92;;;26.70;96.20;;;;;;5083630;28;20245;-49
2021/08/12 03:40:51;;;;;;;5.45;3.28;;;26.80;96.40;;;;;;5083784;28;20021;-50
2021/08/12 03:43:18;;;;;;;7.00;2.97;;;26.80;96.30;;;;;;5083223;28;20111;-50
2021/08/12 03:45:45;;;;;;;8.77;3.60;;;26.80;96.50;;;;;;5083565;28;20062;-46
2021/08/12 03:48:12;;;;;;;8.10;2.75;;;26.80;96.50;;;;;;5083534;28;20039;-50
2021/08/12 03:50:38;;;;;;;8.95;3.33;;;26.70;96.40;;;;;;5084187;28;20021;-48
2021/08/12 03:53:05;;;;;;;6.28;2.97;;;26.70;96.50;;;;;;5083740;28;20021;-50
2021/08/12 03:55:32;;;;;;;9.70;2.50;;;26.70;96.50;;;;;;5089370;28;20034;-47
2021/08/12 03:57:58;;;;;;;37.70;4.30;;;26.60;96.50;;;;;;5101958;28;20324;-53
2021/08/12 04:00:25;;;;;;;10.35;3.13;;;26.60;96.50;;;;;;5104031;28;20294;-47
2021/08/12 04:03:25;;;;;;;14.70;3.60;;;26.60;96.40;;;;;;5104754;28;20062;-50
2021/08/12 04:05:52;;;;;;;13.38;4.55;;;26.60;96.60;;;;;;5107982;28;20257;-49
2021/08/12 04:08:19;;;;;;;8.48;4.43;;;26.60;96.60;;;;;;5107703;28;20035;-53
2021/08/12 04:10:46;;;;;;;10.98;3.90;;;26.60;96.70;;;;;;5106479;28;20016;-50
2021/08/12 04:13:12;;;;;;;29.50;5.35;;;26.50;96.80;;;;;;5106754;28;20026;-52
2021/08/12 04:15:39;;;;;;;57.67;7.45;;;26.50;96.70;;;;;;5107415;28;20095;-48
2021/08/12 04:18:06;;;;;;;63.45;9.52;;;26.50;96.70;;;;;;5106957;28;20020;-47
2021/08/12 04:20:32;;;;;;;128.95;14.23;;;26.40;96.70;;;;;;5107219;28;20023;-49
2021/08/12 04:22:59;;;;;;;61.80;8.48;;;26.50;96.80;;;;;;5108036;28;20342;-55
2021/08/12 04:25:26;;;;;;;61.70;8.38;;;26.50;96.70;;;;;;5106057;28;20050;-48
2021/08/12 04:27:53;;;;;;;56.28;7.25;;;26.50;96.70;;;;;;5105785;28;20028;-51
2021/08/12 04:30:22;;;;;;;49.38;7.88;;;26.40;96.70;;;;;;5107909;28;20063;-49
2021/08/12 04:32:48;;;;;;;28.48;6.55;;;26.40;96.70;;;;;;5107335;28;20016;-49
2021/08/12 04:35:18;;;;;;;32.42;6.45;;;26.40;96.60;;;;;;5106220;28;20016;-55
2021/08/12 04:37:45;;;;;;;21.75;5.68;;;26.40;96.60;;;;;;5106325;28;20016;-50
2021/08/12 04:40:16;;;;;;;19.02;5.40;;;26.40;96.60;;;;;;5106737;28;20027;-53
2021/08/12 04:42:53;;;;;;;32.60;6.10;;;26.50;96.70;;;;;;5107618;28;20020;-46
2021/08/12 04:45:21;;;;;;;110.65;13.63;;;26.50;96.60;;;;;;5107385;28;20008;-59
2021/08/12 04:47:51;;;;;;;135.80;14.15;;;26.40;96.70;;;;;;5107502;28;20200;-51
2021/08/12 04:50:17;;;;;;;122.07;13.75;;;26.40;96.70;;;;;;5107563;28;20020;-49
2021/08/12 04:52:44;;;;;;;87.10;9.70;;;26.40;96.70;;;;;;5107012;28;20077;-50
2021/08/12 04:55:11;;;;;;;95.70;10.77;;;26.40;96.60;;;;;;5107624;28;20016;-49
2021/08/12 04:57:38;;;;;;;51.42;7.43;;;26.30;96.80;;;;;;5106672;28;20016;-49
2021/08/12 05:00:05;;;;;;;44.17;6.95;;;26.30;96.80;;;;;;5106499;28;20308;-53
2021/08/12 05:02:33;;;;;;;38.88;6.18;;;26.30;96.80;;;;;;5106782;28;20297;-50
2021/08/12 05:05:00;;;;;;;28.92;4.72;;;26.40;96.80;;;;;;5105590;28;20202;-50
2021/08/12 05:07:27;;;;;;;23.95;4.82;;;26.30;96.70;;;;;;5105481;28;20062;-56
2021/08/12 05:09:53;;;;;;;29.38;5.53;;;26.40;96.70;;;;;;5106936;28;20016;-48
2021/08/12 05:12:21;;;;;;;22.42;4.32;;;26.40;96.60;;;;;;5106366;28;20012;-52
2021/08/12 05:14:49;;;;;;;14.30;3.80;;;26.40;96.60;;;;;;5104389;28;20362;-50
2021/08/12 05:17:15;;;;;;;53.38;6.53;;;26.40;96.60;;;;;;5106473;28;20028;-50
2021/08/12 05:19:43;;;;;;;28.75;4.60;;;26.40;96.50;;;;;;5106761;28;20016;-54
2021/08/12 05:22:11;;;;;;;25.08;3.85;;;26.40;96.40;;;;;;5106235;28;20020;-48
2021/08/12 05:24:51;;;;;;;22.38;3.97;;;26.40;96.50;;;;;;5106811;28;20356;-50
2021/08/12 05:27:18;;;;;;;20.88;3.60;;;26.40;96.50;;;;;;5105830;28;20039;-51
2021/08/12 05:29:45;;;;;;;24.25;4.35;;;26.40;96.50;;;;;;5105248;28;20084;-50
2021/08/12 05:32:12;;;;;;;17.20;3.65;;;26.40;96.40;;;;;;5105308;28;20016;-50
2021/08/12 05:34:39;;;;;;;15.88;3.30;;;26.40;96.40;;;;;;5105997;28;20189;-51
2021/08/12 05:37:05;;;;;;;20.95;3.90;;;26.40;96.40;;;;;;5106168;28;20335;-50
2021/08/12 05:39:32;;;;;;;13.90;3.33;;;26.30;96.40;;;;;;5106592;28;20430;-49
2021/08/12 05:42:01;;;;;;;7.78;2.88;;;26.40;96.40;;;;;;5105886;28;20028;-49
2021/08/12 05:44:54;;;;;;;16.02;2.90;;;26.40;96.40;;;;;;5106192;28;20028;-50
2021/08/12 05:47:24;;;;;;;8.95;2.22;;;26.30;96.40;;;;;;5101025;28;20030;-50
2021/08/12 05:49:51;;;;;;;6.85;2.50;;;26.30;96.40;;;;;;5104774;28;20031;-47
2021/08/12 05:52:18;;;;;;;7.20;2.40;;;26.40;96.50;;;;;;5106188;28;20536;-47
2021/08/12 05:54:44;;;;;;;11.65;2.50;;;26.40;96.50;;;;;;5105955;28;20095;-50
2021/08/12 05:57:14;;;;;;;9.32;2.00;;;26.40;96.50;;;;;;5104606;28;20016;-51
2021/08/12 05:59:41;;;;;;;5.38;2.30;;;26.30;96.50;;;;;;5106556;28;20024;-50
2021/08/12 06:02:13;;;;;;;6.05;2.28;;;26.30;96.40;;;;;;5105774;28;20087;-49
2021/08/12 06:04:40;;;;;;;6.40;1.92;;;26.30;96.40;;;;;;5105680;28;20028;-52
2021/08/12 06:07:06;;;;;;;5.47;2.28;;;26.30;96.50;;;;;;5105582;28;20349;-57
2021/08/12 06:09:36;;;;;;;6.18;2.00;;;26.30;96.50;;;;;;5104199;28;20328;-50
2021/08/12 06:12:03;;;;;;;6.30;2.67;;;26.30;96.50;;;;;;5104376;28;20266;-51
2021/08/12 06:14:30;;;;;;;29.17;5.40;;;26.30;96.60;;;;;;5105763;28;20036;-52
2021/08/12 06:17:00;;;;;;;54.88;6.65;;;26.30;96.70;;;;;;5104599;28;20028;-56
2021/08/12 06:19:26;;;;;;;40.33;4.75;;;26.30;96.70;;;;;;5105534;28;20318;-52
2021/08/12 06:21:53;;;;;;;55.22;6.28;;;26.30;96.70;;;;;;5105738;28;20027;-50
2021/08/12 06:24:20;;;;;;;56.00;7.78;;;26.30;96.70;;;;;;5104947;28;20083;-51
2021/08/12 06:26:46;;;;;;;96.88;10.20;;;26.30;96.80;;;;;;5103824;28;20117;-58
2021/08/12 06:29:13;;;;;;;86.45;9.32;;;26.30;96.80;;;;;;5103950;28;20016;-51
2021/08/12 06:31:40;;;;;;;109.30;10.75;;;26.30;96.80;;;;;;5105417;28;20066;-57
2021/08/12 06:34:07;;;;;;;59.40;6.22;;;26.30;96.90;;;;;;5103723;28;20016;-58
2021/08/12 06:36:33;;;;;;;75.88;8.30;;;26.30;96.70;;;;;;5105135;28;20028;-48
2021/08/12 06:39:01;;;;;;;95.93;9.90;;;26.20;96.80;;;;;;5104760;28;20371;-52
2021/08/12 06:41:29;;;;;;;121.18;13.07;;;26.10;96.80;;;;;;5104942;28;20227;-54
2021/08/12 06:43:55;;;;;;;105.95;12.30;;;26.20;96.80;;;;;;5104620;28;20024;-45
2021/08/12 06:46:22;;;;;;;74.03;9.00;;;26.10;96.80;;;;;;5104653;28;20099;-48
2021/08/12 06:48:49;;;;;;;92.07;10.73;;;26.10;96.80;;;;;;5104739;28;20147;-47
2021/08/12 06:51:15;;;;;;;118.43;12.38;;;26.10;96.80;;;;;;5104769;28;20031;-61
2021/08/12 06:53:42;;;;;;;87.72;10.65;;;26.10;96.80;;;;;;5104529;28;20121;-50
2021/08/12 06:56:09;;;;;;;101.50;11.15;;;26.10;96.80;;;;;;5104477;28;20039;-50
2021/08/12 06:58:35;;;;;;;85.30;10.25;;;26.20;96.80;;;;;;5104665;28;20312;-51
2021/08/12 07:01:02;;;;;;;67.80;7.90;;;26.20;96.80;;;;;;5104534;28;20088;-49
2021/08/12 07:03:28;;;;;;;50.30;6.47;;;26.10;96.90;;;;;;5104539;28;20439;-55
2021/08/12 07:05:55;;;;;;;36.70;5.50;;;26.10;96.80;;;;;;5104667;28;20209;-50
2021/08/12 07:08:23;;;;;;;30.38;5.18;;;26.10;96.80;;;;;;5104488;28;20053;-50
2021/08/12 07:10:50;;;;;;;20.17;3.90;;;26.10;96.80;;;;;;5104365;28;20104;-56
2021/08/12 07:13:16;;;;;;;21.65;4.40;;;26.00;96.90;;;;;;5104320;28;20114;-49
2021/08/12 07:15:43;;;;;;;16.13;3.80;;;26.10;96.90;;;;;;5104299;28;20027;-53
2021/08/12 07:18:09;;;;;;;13.20;3.55;;;26.00;96.90;;;;;;5104446;28;20068;-56
2021/08/12 07:20:37;;;;;;;15.82;3.17;;;26.10;96.90;;;;;;5104166;28;20027;-55
2021/08/12 07:23:03;;;;;;;10.32;2.72;;;26.10;97.00;;;;;;5104175;28;20058;-53
2021/08/12 07:25:30;;;;;;;9.70;2.25;;;26.10;96.90;;;;;;5103715;28;20031;-48
2021/08/12 07:27:57;;;;;;;9.75;2.92;;;26.10;96.90;;;;;;5104123;28;20028;-54
2021/08/12 07:30:23;;;;;;;10.05;2.47;;;26.10;96.90;;;;;;5103906;28;20012;-47
2021/08/12 07:32:50;;;;;;;4.25;2.33;;;26.10;96.90;;;;;;5103936;28;20083;-52
2021/08/12 07:35:18;;;;;;;6.85;2.30;;;26.10;96.90;;;;;;5103836;28;20016;-52
2021/08/12 07:37:45;;;;;;;5.63;2.30;;;26.10;96.90;;;;;;5103704;28;20024;-51
2021/08/12 07:40:12;;;;;;;6.03;2.30;;;26.20;97.00;;;;;;5103777;28;20036;-52
2021/08/12 07:42:39;;;;;;;3.60;2.40;;;26.20;97.00;;;;;;5104419;28;20023;-54
2021/08/12 07:45:06;;;;;;;12.95;2.60;;;26.20;97.00;;;;;;5103921;28;20072;-49
2021/08/12 07:47:32;;;;;;;8.23;2.15;;;26.10;97.00;;;;;;5104148;28;20028;-48
2021/08/12 07:50:00;;;;;;;5.95;2.40;;;26.10;97.10;;;;;;5103592;28;20250;-58
2021/08/12 07:52:26;;;;;;;4.82;2.42;;;26.10;97.20;;;;;;5104245;28;20037;-51
2021/08/12 07:54:53;;;;;;;6.78;2.80;;;26.10;97.20;;;;;;5103407;28;20016;-53
2021/08/12 07:57:20;;;;;;;4.00;2.80;;;26.10;97.20;;;;;;5104329;28;20024;-55
2021/08/12 07:59:46;;;;;;;6.95;2.72;;;26.10;97.20;;;;;;5103518;28;20028;-54
2021/08/12 08:02:13;;;;;;;5.57;2.70;;;26.10;97.20;;;;;;5103945;28;20285;-52
2021/08/12 08:04:43;;;;;;;6.20;3.50;;;26.10;97.30;;;;;;5103541;28;20027;-52
2021/08/12 08:07:09;;;;;;;11.55;3.55;;;26.10;97.30;;;;;;5103170;28;20030;-51
2021/08/12 08:09:36;;;;;;;7.82;3.10;;;26.10;97.30;;;;;;5103494;28;20365;-53
2021/08/12 08:12:03;;;;;;;4.90;2.92;;;26.10;97.40;;;;;;5104048;28;20300;-57
2021/08/12 08:14:29;;;;;;;4.65;3.22;;;26.10;97.40;;;;;;5103282;28;20024;-51
2021/08/12 08:16:56;;;;;;;5.95;3.30;;;26.10;97.40;;;;;;5102556;28;20020;-51
2021/08/12 08:19:22;;;;;;;8.05;3.50;;;26.10;97.40;;;;;;5103348;28;20051;-59
2021/08/12 08:21:49;;;;;;;6.53;3.40;;;26.10;97.40;;;;;;5103840;28;20305;-55
2021/08/12 08:24:16;;;;;;;9.18;3.25;;;26.10;97.50;;;;;;5103307;28;20028;-53
2021/08/12 08:26:42;;;;;;;5.30;3.20;;;26.10;97.50;;;;;;5103414;28;20051;-51
2021/08/12 08:29:09;;;;;;;7.00;3.38;;;26.10;97.40;;;;;;5103499;28;20020;-52
2021/08/12 08:31:35;;;;;;;8.40;3.38;;;26.10;97.40;;;;;;5103410;28;20024;-52
2021/08/12 08:34:02;;;;;;;8.50;3.20;;;26.10;97.40;;;;;;5103491;28;20016;-50
2021/08/12 08:36:28;;;;;;;4.13;2.90;;;26.10;97.50;;;;;;5103823;28;20028;-50
2021/08/12 08:38:56;;;;;;;6.93;3.05;;;26.10;97.50;;;;;;5103043;28;20016;-54
2021/08/12 08:41:23;;;;;;;7.63;3.00;;;26.10;97.50;;;;;;5103492;28;20059;-60
2021/08/12 08:43:53;;;;;;;7.80;3.47;;;26.10;97.40;;;;;;5103357;28;20046;-55
2021/08/12 08:46:21;;;;;;;8.02;2.92;;;26.10;97.50;;;;;;5103369;28;20059;-50
2021/08/12 08:48:52;;;;;;;7.80;3.20;;;26.10;97.40;;;;;;5103237;28;20043;-50
2021/08/12 08:51:19;;;;;;;5.60;3.10;;;26.10;97.50;;;;;;5106543;28;20020;-51
2021/08/12 08:53:47;;;;;;;6.15;3.25;;;26.10;97.50;;;;;;5106821;28;20012;-49
2021/08/12 08:56:16;;;;;;;6.03;3.53;;;26.10;97.50;;;;;;5107023;28;20020;-49
2021/08/12 08:58:42;;;;;;;5.60;3.20;;;26.10;97.50;;;;;;5107029;28;20317;-54
2021/08/12 09:01:12;;;;;;;6.70;3.10;;;26.10;97.50;;;;;;5107090;28;20300;-51
2021/08/12 09:03:38;;;;;;;5.45;2.97;;;26.10;97.50;;;;;;5106778;28;20024;-51
2021/08/12 09:06:07;;;;;;;10.85;3.17;;;26.10;97.50;;;;;;5106723;28;20406;-52
2021/08/12 09:08:34;;;;;;;6.93;2.50;;;26.10;97.50;;;;;;5105337;28;20027;-53
2021/08/12 09:11:00;;;;;;;5.50;2.63;;;26.10;97.50;;;;;;5106728;28;20226;-47
2021/08/12 09:13:30;;;;;;;5.35;2.50;;;26.10;97.50;;;;;;5106817;28;20212;-54
2021/08/12 09:15:57;;;;;;;7.20;2.70;;;26.10;97.50;;;;;;5106482;28;20073;-49
2021/08/12 09:18:26;;;;;;;7.80;2.78;;;26.10;97.80;;;;;;5106444;28;20030;-50
2021/08/12 09:20:57;;;;;;;9.00;2.40;;;26.10;97.50;;;;;;5106653;28;20064;-51
2021/08/12 09:23:30;;;;;;;5.20;2.42;;;26.10;97.50;;;;;;5106251;28;20020;-50
2021/08/12 09:25:58;;;;;;;5.32;2.20;;;26.10;97.50;;;;;;5104883;28;20237;-50
2021/08/12 09:28:28;;;;;;;6.07;2.40;;;26.10;97.50;;;;;;5106088;28;20020;-57
2021/08/12 09:31:00;;;;;;;6.90;2.28;;;26.10;97.50;;;;;;5106541;28;20320;-52
2021/08/12 09:33:35;;;;;;;4.82;2.47;;;26.00;97.50;;;;;;5106667;28;20016;-52
2021/08/12 09:36:03;;;;;;;5.95;2.38;;;26.10;97.50;;;;;;5106701;28;20095;-53
2021/08/12 09:38:30;;;;;;;7.03;2.35;;;26.00;97.40;;;;;;5106272;28;20328;-53
2021/08/12 09:41:00;;;;;;;8.18;2.40;;;26.00;97.40;;;;;;5106347;28;20028;-54
2021/08/12 09:43:37;;;;;;;4.82;2.33;;;26.00;97.50;;;;;;5106003;28;20032;-51
2021/08/12 09:46:06;;;;;;;7.72;2.60;;;26.00;97.40;;;;;;5106000;28;20035;-50
2021/08/12 09:48:32;;;;;;;6.35;2.70;;;26.00;97.40;;;;;;5105979;28;20190;-53
2021/08/12 09:51:09;;;;;;;5.40;2.67;;;26.00;97.50;;;;;;5105941;28;20027;-50
2021/08/12 09:53:36;;;;;;;5.78;2.60;;;26.00;97.50;;;;;;5105707;28;20019;-52
2021/08/12 09:56:10;;;;;;;7.70;2.58;;;26.00;97.40;;;;;;5105886;28;20061;-50
2021/08/12 09:58:38;;;;;;;4.90;2.60;;;26.00;97.50;;;;;;5105994;28;20069;-51
2021/08/12 10:01:25;;;;;;;6.35;2.40;;;26.00;97.40;;;;;;5105403;28;20031;-49
2021/08/12 10:03:54;;;;;;;6.88;2.70;;;26.00;97.40;;;;;;5105457;28;20044;-49
2021/08/12 10:06:27;;;;;;;5.75;2.80;;;26.00;97.50;;;;;;5105251;28;20106;-51
2021/08/12 10:08:53;;;;;;;6.45;2.80;;;26.00;97.50;;;;;;5105346;28;20039;-51
2021/08/12 10:11:28;;;;;;;6.43;2.70;;;26.00;97.50;;;;;;5105092;28;20091;-51
2021/08/12 10:14:02;;;;;;;7.15;2.92;;;26.00;97.50;;;;;;5105404;28;20315;-57
2021/08/12 10:16:31;;;;;;;6.53;3.13;;;26.00;97.50;;;;;;5105505;28;20032;-51
2021/08/12 10:18:59;;;;;;;13.10;3.28;;;26.00;97.60;;;;;;5105081;28;20031;-62
2021/08/12 10:21:27;;;;;;;9.85;3.42;;;26.00;97.60;;;;;;5105374;28;20027;-50
2021/08/12 10:23:59;;;;;;;9.82;3.30;;;26.00;97.50;;;;;;5105025;28;20083;-50
2021/08/12 10:26:26;;;;;;;;;;;25.90;97.50;;;;;;5105248;28;20389;-53
2021/08/12 10:29:05;;;;;;;11.82;3.42;;;26.00;97.60;;;;;;5104912;28;19912;-52
2021/08/12 10:31:32;;;;;;;6.43;3.05;;;26.00;97.60;;;;;;5104977;28;20070;-48
2021/08/12 10:34:00;;;;;;;11.95;3.85;;;25.90;97.60;;;;;;5105291;28;20039;-49
2021/08/12 10:36:27;;;;;;;13.95;3.80;;;26.00;97.60;;;;;;5105232;28;20020;-58
2021/08/12 10:38:54;;;;;;;7.88;3.35;;;26.00;97.70;;;;;;5104748;28;20028;-53
2021/08/12 10:41:33;;;;;;;13.75;3.60;;;25.90;97.70;;;;;;5105723;28;20153;-52
2021/08/12 10:44:00;;;;;;;15.27;4.60;;;26.00;97.70;;;;;;5104297;28;20255;-53
2021/08/12 10:46:39;;;;;;;13.60;3.95;;;26.00;97.70;;;;;;5104797;28;20027;-54
2021/08/12 10:49:28;;;;;;;12.25;4.30;;;26.00;97.70;;;;;;5104689;28;20023;-50
2021/08/12 10:52:03;;;;;;;10.27;4.07;;;25.90;97.60;;;;;;5105070;28;20122;-54
2021/08/12 10:54:32;;;;;;;10.65;3.72;;;25.90;97.60;;;;;;5104589;28;20020;-55
2021/08/12 10:57:23;;;;;;;17.58;3.85;;;25.90;97.60;;;;;;5104570;28;20087;-49
2021/08/12 10:59:52;;;;;;;10.98;3.28;;;25.90;97.70;;;;;;5103288;28;20026;-54
2021/08/12 11:02:29;;;;;;;8.30;3.85;;;25.90;97.70;;;;;;5104783;28;20296;-57
2021/08/12 11:05:01;;;;;;;11.07;3.50;;;25.90;97.70;;;;;;5103415;28;20024;-53
2021/08/12 11:07:39;;;;;;;9.85;3.50;;;25.90;97.70;;;;;;5104759;28;20320;-54
2021/08/12 11:10:11;;;;;;;7.20;3.22;;;25.90;97.70;;;;;;5104400;28;20051;-54
2021/08/12 11:12:53;;;;;;;9.88;3.33;;;25.90;97.70;;;;;;5104131;28;20053;-51
2021/08/12 11:15:41;;;;;;;7.53;3.15;;;25.90;97.70;;;;;;5104345;28;20027;-51
2021/08/12 11:18:14;;;;;;;9.02;3.45;;;25.90;97.70;;;;;;5104187;28;20377;-57
2021/08/12 11:20:42;;;;;;;9.40;3.28;;;25.90;97.70;;;;;;5104259;28;20378;-51
2021/08/12 11:23:21;;;;;;;9.52;3.30;;;25.90;97.70;;;;;;5104114;28;20283;-51
2021/08/12 11:26:01;;;;;;;8.27;2.83;;;25.90;97.80;;;;;;5104179;28;20165;-54
2021/08/12 11:28:40;;;;;;;11.18;3.45;;;25.90;97.70;;;;;;5104063;28;20027;-57
2021/08/12 11:31:30;;;;;;;9.65;3.15;;;25.90;97.80;;;;;;5104308;28;20032;-51
2021/08/12 11:34:01;;;;;;;8.35;3.38;;;25.90;97.80;;;;;;5104122;28;20087;-48
2021/08/12 11:36:34;;;;;;;7.68;3.45;;;25.90;97.80;;;;;;5104224;28;20305;-51
2021/08/12 11:39:09;;;;;;;6.57;3.20;;;25.90;97.80;;;;;;5103852;28;20016;-51
2021/08/12 11:41:41;;;;;;;10.73;3.65;;;25.90;97.80;;;;;;5104238;28;20343;-54
2021/08/12 11:44:16;;;;;;;7.65;3.40;;;25.90;97.70;;;;;;5103929;28;20028;-48
2021/08/12 11:46:43;;;;;;;8.45;3.22;;;25.90;97.80;;;;;;5104089;28;20066;-54
2021/08/12 11:49:15;;;;;;;9.18;3.83;;;25.90;97.80;;;;;;5103723;28;20327;-53
2021/08/12 11:51:41;;;;;;;10.25;3.40;;;26.00;97.80;;;;;;5104013;28;20297;-52
2021/08/12 11:54:10;;;;;;;10.15;3.90;;;26.00;97.80;;;;;;5103948;28;20016;-53
2021/08/12 11:56:38;;;;;;;9.38;3.53;;;26.00;97.70;;;;;;5104108;28;20069;-51
2021/08/12 11:59:05;;;;;;;8.40;3.05;;;26.00;97.70;;;;;;5103694;28;20023;-51
2021/08/12 12:01:36;;;;;;;7.30;3.30;;;26.00;97.70;;;;;;5104183;28;20027;-57
2021/08/12 12:04:07;;;;;;;10.73;3.50;;;26.00;97.60;;;;;;5103857;28;20016;-53
2021/08/12 12:06:47;;;;;;;11.32;3.47;;;26.00;97.60;;;;;;5104120;28;20039;-51
2021/08/12 12:09:26;;;;;;;5.40;3.20;;;26.00;97.60;;;;;;5103684;28;20031;-50
2021/08/12 12:12:05;;;;;;;10.10;3.45;;;26.00;97.50;;;;;;5103937;28;20122;-50
2021/08/12 12:14:36;;;;;;;7.00;2.80;;;26.00;97.50;;;;;;5103616;28;20019;-56
2021/08/12 12:17:33;;;;;;;5.03;2.90;;;26.00;97.50;;;;;;5103983;28;20051;-53
2021/08/12 12:20:03;;;;;;;7.03;2.70;;;26.00;97.50;;;;;;5087507;28;20036;-51
2021/08/12 12:22:44;;;;;;;6.90;2.60;;;25.90;97.50;;;;;;5104196;28;20095;-47
2021/08/12 12:25:13;;;;;;;8.65;2.80;;;26.00;97.30;;;;;;5105348;28;20340;-51
2021/08/12 12:27:46;;;;;;;5.93;2.60;;;26.00;97.30;;;;;;5107899;28;20047;-50
2021/08/12 12:30:15;;;;;;;6.57;2.58;;;26.00;97.10;;;;;;5107407;28;20016;-51
2021/08/12 12:32:44;;;;;;;6.35;2.40;;;26.00;97.10;;;;;;5107307;28;20024;-53
2021/08/12 12:35:12;;;;;;;10.38;3.00;;;26.00;97.10;;;;;;5106136;28;20020;-49
2021/08/12 12:37:41;;;;;;;9.73;2.72;;;26.00;97.10;;;;;;5107671;28;20062;-53
2021/08/12 12:40:16;;;;;;;6.72;2.85;;;26.00;97.00;;;;;;5107051;28;20046;-51
2021/08/12 12:42:43;;;;;;;9.18;2.40;;;26.00;96.90;;;;;;5107041;28;20251;-56
2021/08/12 12:45:12;;;;;;;5.53;2.50;;;26.00;97.00;;;;;;5105756;28;20028;-48
2021/08/12 12:47:39;;;;;;;5.43;2.53;;;26.00;96.80;;;;;;5107403;28;20027;-53
2021/08/12 12:50:14;;;;;;;5.38;2.20;;;26.00;96.80;;;;;;5106949;28;20028;-50
2021/08/12 12:53:01;;;;;;;4.25;2.00;;;26.00;96.70;;;;;;5106799;28;20044;-50
2021/08/12 12:55:33;;;;;;;4.70;2.20;;;26.10;96.70;;;;;;5106769;28;20023;-56